Time;durP1;ratioP1;P1;durP2;ratioP2;P2;SDS_P1;SDS_P2;PMS_P1;PMS_P2;Temp;Humidity;BMP_temperature;BMP_pressure;BME280_temperature;BME280_humidity;BME280_pressure;Samples;Min_cycle;Max_cycle;Signal;HPM_P1;HPM_P2
2022/05/12 00:00:31;;;;;;;7.65;1.73;;;12.20;99.90;;;;;;5054436;28;20089;-90
2022/05/12 00:02:57;;;;;;;8.40;1.70;;;12.20;99.90;;;;;;5037809;28;20052;-90
2022/05/12 00:05:23;;;;;;;7.03;1.50;;;12.20;99.90;;;;;;5054490;28;20041;-90
2022/05/12 00:07:49;;;;;;;9.10;1.95;;;12.10;99.90;;;;;;5038084;28;20043;-90
2022/05/12 00:10:19;;;;;;;8.05;1.60;;;12.10;99.90;;;;;;5053914;28;20052;-90
2022/05/12 00:12:46;;;;;;;7.05;1.73;;;12.10;99.90;;;;;;5054668;28;20055;-90
2022/05/12 00:15:15;;;;;;;8.65;1.50;;;12.00;99.90;;;;;;5054710;28;20036;-89
2022/05/12 00:17:41;;;;;;;7.75;1.50;;;12.00;99.90;;;;;;5054272;28;20045;-90
2022/05/12 00:20:08;;;;;;;5.30;1.23;;;11.90;99.90;;;;;;5037607;28;20482;-90
2022/05/12 00:22:34;;;;;;;6.18;1.30;;;11.90;99.90;;;;;;5054461;28;20048;-91
2022/05/12 00:24:59;;;;;;;7.85;1.85;;;11.80;99.90;;;;;;5054361;28;20036;-90
2022/05/12 00:27:25;;;;;;;5.63;1.23;;;11.80;99.90;;;;;;5037853;28;20367;-90
2022/05/12 00:29:50;;;;;;;5.78;1.63;;;11.80;99.90;;;;;;5054202;28;20520;-90
2022/05/12 00:32:16;;;;;;;7.60;1.50;;;11.70;99.90;;;;;;5054157;28;20119;-90
2022/05/12 00:34:41;;;;;;;7.00;1.20;;;11.70;99.90;;;;;;5054450;28;20040;-90
2022/05/12 00:37:08;;;;;;;5.53;1.40;;;11.70;99.90;;;;;;5054282;28;20516;-90
2022/05/12 00:39:35;;;;;;;7.60;1.38;;;11.60;99.90;;;;;;5037251;28;20041;-90
2022/05/12 00:42:00;;;;;;;5.82;1.02;;;11.60;99.90;;;;;;5053802;28;20078;-90
2022/05/12 00:44:26;;;;;;;5.70;1.35;;;11.60;99.90;;;;;;5053926;28;20032;-90
2022/05/12 00:46:53;;;;;;;7.72;1.50;;;11.50;99.90;;;;;;5054071;28;20448;-90
2022/05/12 00:49:33;;;;;;;6.22;1.45;;;11.50;99.90;;;;;;5037508;28;20624;-90
2022/05/12 00:52:06;;;;;;;7.78;1.73;;;11.50;99.90;;;;;;5037070;28;20082;-90
2022/05/12 00:54:49;;;;;;;4.68;1.10;;;11.40;99.90;;;;;;5037650;28;20032;-90
2022/05/12 00:57:20;;;;;;;;;;;11.40;99.90;;;;;;5054351;28;20131;-90
2022/05/12 00:59:46;;;;;;;4.63;1.08;;;11.30;99.90;;;;;;5053912;28;19928;-90
2022/05/12 01:02:17;;;;;;;5.20;1.17;;;11.20;99.90;;;;;;5036782;28;20072;-90
2022/05/12 01:04:44;;;;;;;8.90;1.58;;;11.20;99.90;;;;;;5053814;28;20032;-90
2022/05/12 01:07:10;;;;;;;5.03;1.20;;;11.20;99.90;;;;;;5037377;28;20040;-90
2022/05/12 01:09:36;;;;;;;6.18;1.45;;;11.10;99.90;;;;;;5054058;28;20101;-89
2022/05/12 01:12:02;;;;;;;5.60;1.08;;;11.10;99.90;;;;;;5053392;28;20409;-90
2022/05/12 01:14:28;;;;;;;4.97;1.60;;;11.10;99.90;;;;;;5037258;28;20033;-90
2022/05/12 01:16:56;;;;;;;3.80;1.02;;;11.10;99.90;;;;;;5053998;28;20036;-89
2022/05/12 01:19:40;;;;;;;5.32;1.10;;;11.00;99.90;;;;;;5053338;28;20040;-89
2022/05/12 01:22:21;;;;;;;3.58;1.00;;;11.00;99.90;;;;;;5053499;28;20559;-90
2022/05/12 01:24:47;;;;;;;5.20;1.52;;;11.00;99.90;;;;;;5053922;28;20040;-90
2022/05/12 01:27:19;;;;;;;3.22;0.95;;;11.00;99.90;;;;;;5036856;28;20043;-89
2022/05/12 01:29:51;;;;;;;4.47;0.82;;;10.90;99.90;;;;;;5053722;28;20040;-90
2022/05/12 01:32:17;;;;;;;5.50;1.30;;;10.90;99.90;;;;;;5037071;28;20045;-90
2022/05/12 01:34:43;;;;;;;5.90;1.20;;;10.90;99.90;;;;;;5053692;28;20048;-90
2022/05/12 01:37:09;;;;;;;6.95;1.50;;;10.90;99.90;;;;;;5053718;28;20044;-90
2022/05/12 01:39:35;;;;;;;4.50;1.13;;;10.80;99.90;;;;;;5036923;28;20059;-90
2022/05/12 01:42:06;;;;;;;6.30;1.33;;;10.80;99.90;;;;;;5053078;28;20857;-90
2022/05/12 01:44:33;;;;;;;4.97;1.48;;;10.80;99.90;;;;;;5037037;28;20558;-89
2022/05/12 01:46:59;;;;;;;5.05;1.20;;;10.70;99.90;;;;;;5036942;28;20046;-89
2022/05/12 01:49:25;;;;;;;6.20;1.42;;;10.70;99.90;;;;;;5053529;28;20169;-90
2022/05/12 01:51:55;;;;;;;5.38;1.40;;;10.60;99.90;;;;;;5036450;28;20044;-89
2022/05/12 01:54:21;;;;;;;3.75;1.10;;;10.60;99.90;;;;;;5053510;28;20040;-89
2022/05/12 01:56:47;;;;;;;3.85;1.90;;;10.50;99.90;;;;;;5053339;28;20040;-90
2022/05/12 01:59:13;;;;;;;7.88;1.45;;;10.40;99.90;;;;;;5036648;28;20149;-90
2022/05/12 02:01:38;;;;;;;4.95;1.30;;;10.40;99.90;;;;;;5052943;28;20160;-89
2022/05/12 02:04:05;;;;;;;6.00;1.40;;;10.30;99.90;;;;;;5053283;28;20550;-89
2022/05/12 02:06:31;;;;;;;4.53;1.33;;;10.30;99.90;;;;;;5053676;28;20044;-90
2022/05/12 02:08:57;;;;;;;6.15;1.55;;;10.30;99.90;;;;;;5053288;28;20036;-90
2022/05/12 02:11:23;;;;;;;5.55;1.63;;;10.30;99.90;;;;;;5053070;28;20494;-89
2022/05/12 02:13:49;;;;;;;6.10;1.60;;;10.30;99.90;;;;;;5053558;28;20038;-90
2022/05/12 02:16:14;;;;;;;7.18;1.88;;;10.30;99.90;;;;;;5039834;28;20555;-90
2022/05/12 02:18:40;;;;;;;7.95;1.85;;;10.30;99.90;;;;;;5074795;28;20128;-90
2022/05/12 02:21:06;;;;;;;5.15;1.40;;;10.30;99.90;;;;;;5056660;28;20123;-89
2022/05/12 02:23:32;;;;;;;7.80;2.28;;;10.30;99.90;;;;;;5056784;28;20098;-90
2022/05/12 02:25:57;;;;;;;7.53;1.58;;;10.30;99.90;;;;;;5056668;28;20553;-90
2022/05/12 02:28:23;;;;;;;6.18;2.08;;;10.30;99.90;;;;;;5056939;28;20123;-90
2022/05/12 02:30:49;;;;;;;4.72;1.58;;;10.20;99.90;;;;;;5056520;28;20036;-90
2022/05/12 02:33:14;;;;;;;4.88;1.25;;;10.20;99.90;;;;;;5056692;28;20041;-89
2022/05/12 02:35:40;;;;;;;5.13;1.63;;;10.10;99.90;;;;;;5056607;28;20127;-89
2022/05/12 02:38:07;;;;;;;6.13;1.35;;;10.00;99.90;;;;;;5056225;28;20048;-89
2022/05/12 02:40:32;;;;;;;6.15;1.60;;;10.00;99.90;;;;;;5056222;28;20071;-90
2022/05/12 02:42:58;;;;;;;6.55;1.67;;;9.90;99.90;;;;;;5056251;28;20064;-89
2022/05/12 02:45:25;;;;;;;9.25;2.00;;;9.90;99.90;;;;;;5056307;28;20105;-90
2022/05/12 02:47:50;;;;;;;5.05;1.58;;;9.80;99.90;;;;;;5056497;28;20494;-90
2022/05/12 02:50:18;;;;;;;8.98;1.77;;;9.80;99.90;;;;;;5056017;28;20169;-90
2022/05/12 02:52:43;;;;;;;6.85;1.92;;;9.80;99.90;;;;;;5056452;28;20093;-90
2022/05/12 02:55:10;;;;;;;7.70;1.60;;;9.70;99.90;;;;;;5056295;28;20511;-90
2022/05/12 02:57:36;;;;;;;7.35;2.15;;;9.60;99.90;;;;;;5039311;28;20520;-89
2022/05/12 03:00:08;;;;;;;7.68;2.22;;;9.60;99.90;;;;;;5073697;28;20048;-90
2022/05/12 03:02:34;;;;;;;5.78;1.65;;;9.60;99.90;;;;;;5056049;28;20049;-90
2022/05/12 03:04:59;;;;;;;5.75;2.00;;;9.50;99.90;;;;;;5073901;28;20036;-90
2022/05/12 03:07:25;;;;;;;4.95;1.60;;;9.40;99.90;;;;;;5055950;28;20067;-90
2022/05/12 03:09:50;;;;;;;6.90;1.90;;;9.40;99.90;;;;;;5056130;28;20036;-89
2022/05/12 03:12:16;;;;;;;5.72;1.63;;;9.30;99.90;;;;;;5055729;28;20523;-89
2022/05/12 03:14:41;;;;;;;5.93;1.95;;;9.30;99.90;;;;;;5039171;28;20037;-90
2022/05/12 03:17:07;;;;;;;7.55;2.40;;;9.30;99.90;;;;;;5055862;28;20040;-90
2022/05/12 03:19:33;;;;;;;8.25;1.98;;;9.20;99.90;;;;;;5055809;28;20387;-90
2022/05/12 03:21:59;;;;;;;5.10;1.50;;;9.20;99.90;;;;;;5055294;28;20048;-90
2022/05/12 03:24:25;;;;;;;6.82;2.20;;;9.20;99.90;;;;;;5055736;28;20080;-90
2022/05/12 03:26:50;;;;;;;6.28;1.67;;;9.20;99.90;;;;;;5073342;28;20524;-90
2022/05/12 03:29:16;;;;;;;8.02;1.83;;;9.20;99.90;;;;;;5055502;28;20037;-90
2022/05/12 03:31:42;;;;;;;8.13;1.95;;;9.20;99.90;;;;;;5055116;28;20075;-90
2022/05/12 03:34:07;;;;;;;8.82;2.08;;;9.10;99.90;;;;;;5055331;28;20044;-90
2022/05/12 03:36:39;;;;;;;7.43;1.88;;;9.10;99.90;;;;;;5055066;28;20406;-90
2022/05/12 03:39:05;;;;;;;7.63;1.90;;;9.10;99.90;;;;;;5038984;28;20119;-90
2022/05/12 03:41:31;;;;;;;5.75;1.70;;;9.00;99.90;;;;;;5055111;28;20118;-90
2022/05/12 03:46:41;;;;;;;6.10;1.98;;;8.90;99.90;;;;;;5055545;28;20200;-90
2022/05/12 03:49:07;;;;;;;7.03;2.10;;;8.90;99.90;;;;;;5055315;28;20546;-90
2022/05/12 03:51:33;;;;;;;8.40;2.25;;;8.90;99.90;;;;;;5054781;28;20119;-90
2022/05/12 03:53:59;;;;;;;8.60;2.47;;;8.90;99.90;;;;;;5055035;28;20067;-90
2022/05/12 03:56:24;;;;;;;11.85;2.08;;;8.90;99.90;;;;;;5055147;28;20427;-90
2022/05/12 03:58:50;;;;;;;6.60;2.00;;;8.90;99.90;;;;;;5055338;28;20510;-89
2022/05/12 04:01:15;;;;;;;6.93;2.35;;;8.80;99.90;;;;;;5054850;28;20037;-90
2022/05/12 04:03:41;;;;;;;7.70;2.78;;;8.80;99.90;;;;;;5054854;28;20043;-90
2022/05/12 04:06:07;;;;;;;10.88;2.55;;;8.80;99.90;;;;;;5038430;28;20063;-91
2022/05/12 04:08:33;;;;;;;8.40;2.33;;;8.80;99.90;;;;;;5054900;28;20047;-90
2022/05/12 04:11:00;;;;;;;12.90;3.47;;;8.80;99.90;;;;;;5054703;28;20159;-90
2022/05/12 04:13:26;;;;;;;7.47;2.35;;;8.80;99.90;;;;;;5054808;28;20486;-89
2022/05/12 04:15:52;;;;;;;11.25;2.92;;;8.90;99.90;;;;;;5027994;28;20037;-90
2022/05/12 04:18:18;;;;;;;9.50;2.42;;;8.90;99.90;;;;;;5030399;28;20044;-89
2022/05/12 04:20:43;;;;;;;9.05;2.70;;;8.90;99.90;;;;;;5015679;28;20041;-90
2022/05/12 04:23:09;;;;;;;11.93;2.85;;;9.00;99.90;;;;;;5018132;28;20041;-90
2022/05/12 04:25:35;;;;;;;15.43;3.15;;;9.00;99.90;;;;;;5034536;28;20048;-90
2022/05/12 04:28:02;;;;;;;11.57;3.25;;;9.10;99.90;;;;;;5034609;28;20044;-90
2022/05/12 04:30:27;;;;;;;9.15;2.95;;;9.20;99.90;;;;;;5034367;28;20045;-90
2022/05/12 04:32:54;;;;;;;11.02;3.13;;;9.20;99.90;;;;;;5038012;28;20387;-90
2022/05/12 04:35:20;;;;;;;11.77;3.13;;;9.30;99.90;;;;;;5054389;28;20409;-89
2022/05/12 04:37:54;;;;;;;10.45;3.70;;;9.30;99.90;;;;;;5053385;28;20045;-90
2022/05/12 04:40:25;;;;;;;9.88;3.38;;;9.40;99.90;;;;;;5053932;28;20051;-89
2022/05/12 04:42:52;;;;;;;10.90;3.95;;;9.40;99.90;;;;;;5054658;28;20063;-90
2022/05/12 04:45:19;;;;;;;10.32;3.65;;;9.50;99.90;;;;;;5053990;28;20037;-88
2022/05/12 04:47:46;;;;;;;13.95;3.80;;;9.50;99.90;;;;;;5037830;28;20398;-89
2022/05/12 04:50:16;;;;;;;10.27;4.13;;;9.60;99.90;;;;;;5053839;28;20498;-89
2022/05/12 04:52:41;;;;;;;14.48;3.97;;;9.70;99.90;;;;;;5054489;28;20066;-90
2022/05/12 04:55:07;;;;;;;12.68;3.17;;;9.70;99.90;;;;;;5054518;28;20040;-90
2022/05/12 04:57:41;;;;;;;14.50;4.68;;;9.70;99.90;;;;;;5053878;28;20490;-90
2022/05/12 05:00:13;;;;;;;14.07;4.40;;;9.80;99.90;;;;;;5053801;28;20036;-90
2022/05/12 05:02:39;;;;;;;12.68;4.65;;;9.80;99.90;;;;;;5054361;28;20414;-89
2022/05/12 05:05:06;;;;;;;16.25;5.28;;;9.90;99.90;;;;;;5053904;28;20451;-90
2022/05/12 05:07:32;;;;;;;17.15;7.32;;;9.90;99.90;;;;;;5054289;28;20450;-89
2022/05/12 05:09:58;;;;;;;16.00;4.72;;;10.00;99.90;;;;;;5037141;28;20575;-89
2022/05/12 05:12:23;;;;;;;13.38;5.10;;;10.00;99.90;;;;;;5053572;28;20072;-90
2022/05/12 05:14:49;;;;;;;15.43;5.43;;;10.10;99.90;;;;;;5053955;28;20044;-90
2022/05/12 05:17:15;;;;;;;16.23;4.93;;;10.20;99.90;;;;;;5051374;28;20048;-90
2022/05/12 05:19:41;;;;;;;14.95;5.85;;;10.20;99.90;;;;;;5053888;28;20152;-90
2022/05/12 05:22:07;;;;;;;16.08;5.78;;;10.30;99.90;;;;;;5071678;28;20650;-90
2022/05/12 05:24:34;;;;;;;13.00;5.93;;;10.30;99.90;;;;;;5054263;28;20032;-90
2022/05/12 05:27:00;;;;;;;13.90;6.55;;;10.40;99.90;;;;;;5053740;28;20075;-90
2022/05/12 05:29:26;;;;;;;14.27;5.85;;;10.40;99.90;;;;;;5053740;28;20036;-91
2022/05/12 05:31:52;;;;;;;14.38;5.55;;;10.50;99.90;;;;;;5053714;28;20039;-90
2022/05/12 05:34:17;;;;;;;13.60;5.30;;;10.60;99.90;;;;;;5037185;28;20043;-90
2022/05/12 05:36:45;;;;;;;15.23;5.63;;;10.70;99.90;;;;;;5053862;28;20052;-91
2022/05/12 05:39:21;;;;;;;14.30;5.75;;;10.80;99.90;;;;;;5053908;28;20047;-90
2022/05/12 05:41:47;;;;;;;12.38;5.35;;;10.80;99.90;;;;;;5036948;28;20036;-90
2022/05/12 05:44:13;;;;;;;13.98;6.38;;;10.90;99.90;;;;;;5053871;28;20612;-90
2022/05/12 05:46:39;;;;;;;16.20;5.97;;;11.00;99.90;;;;;;5037098;28;20119;-90
2022/05/12 05:49:04;;;;;;;14.00;6.13;;;11.00;99.90;;;;;;5038557;28;20133;-90
2022/05/12 05:54:14;;;;;;;17.15;5.82;;;11.20;99.90;;;;;;5057361;28;20482;-90
2022/05/12 05:56:39;;;;;;;14.32;5.25;;;11.20;99.90;;;;;;5041308;28;20041;-91
2022/05/12 05:59:05;;;;;;;16.48;5.63;;;11.30;99.90;;;;;;5040773;28;20047;-91
2022/05/12 06:01:30;;;;;;;17.13;6.78;;;11.40;99.90;;;;;;5040880;28;20146;-90
2022/05/12 06:03:58;;;;;;;19.02;6.15;;;11.50;99.90;;;;;;5057400;28;20555;-91
2022/05/12 06:06:24;;;;;;;14.93;6.38;;;11.60;99.90;;;;;;5057680;28;20045;-91
2022/05/12 06:08:49;;;;;;;14.98;7.38;;;11.70;99.90;;;;;;5057714;28;20398;-91
2022/05/12 06:11:15;;;;;;;15.70;7.25;;;11.70;99.90;;;;;;5064889;28;20043;-91
2022/05/12 06:13:41;;;;;;;16.98;6.80;;;11.90;99.90;;;;;;5070965;28;20032;-91
2022/05/12 06:16:06;;;;;;;16.50;7.20;;;12.00;99.90;;;;;;5066727;28;20036;-89
2022/05/12 06:18:32;;;;;;;18.17;7.32;;;12.00;99.90;;;;;;5058533;28;20086;-90
2022/05/12 06:20:58;;;;;;;18.75;8.07;;;12.20;99.90;;;;;;5041780;28;20048;-90
2022/05/12 06:23:24;;;;;;;16.52;7.55;;;12.20;99.90;;;;;;5058007;28;20519;-90
2022/05/12 06:25:50;;;;;;;16.02;7.25;;;12.30;99.90;;;;;;5057826;28;20036;-90
2022/05/12 06:28:16;;;;;;;15.43;7.28;;;12.30;99.90;;;;;;5057551;28;20678;-89
2022/05/12 06:30:41;;;;;;;15.15;7.55;;;12.40;99.90;;;;;;5056907;28;20154;-90
2022/05/12 06:33:14;;;;;;;17.40;7.65;;;12.50;99.90;;;;;;5040251;28;20070;-90
2022/05/12 06:35:39;;;;;;;19.55;6.80;;;12.60;99.90;;;;;;5056910;28;20043;-90
2022/05/12 06:38:05;;;;;;;15.80;6.70;;;12.60;99.90;;;;;;5056639;28;20119;-90
2022/05/12 06:40:31;;;;;;;19.55;10.00;;;12.70;99.90;;;;;;5039763;28;20036;-91
2022/05/12 06:42:58;;;;;;;15.18;7.05;;;12.80;99.90;;;;;;5056905;28;20094;-91
2022/05/12 06:45:23;;;;;;;16.35;6.72;;;12.90;99.90;;;;;;5056722;28;20111;-90
2022/05/12 06:47:51;;;;;;;15.45;7.18;;;12.90;99.90;;;;;;5040046;28;20083;-90
2022/05/12 06:50:20;;;;;;;18.50;8.48;;;13.00;99.90;;;;;;5039373;28;20524;-90
2022/05/12 06:52:47;;;;;;;14.00;6.38;;;13.10;99.90;;;;;;5056316;28;20041;-90
2022/05/12 06:55:13;;;;;;;15.82;8.68;;;13.20;99.90;;;;;;5056569;28;20494;-90
2022/05/12 06:57:39;;;;;;;12.35;5.15;;;13.30;99.90;;;;;;5056413;28;20040;-90
2022/05/12 07:00:08;;;;;;;11.93;5.57;;;13.40;99.90;;;;;;5038701;28;20055;-90
2022/05/12 07:02:35;;;;;;;13.40;7.20;;;13.40;99.90;;;;;;5040244;28;20040;-90
2022/05/12 07:05:00;;;;;;;13.52;7.18;;;13.50;99.90;;;;;;5056071;28;20036;-90
2022/05/12 07:07:27;;;;;;;13.65;6.38;;;13.60;99.90;;;;;;5039783;28;20135;-90
2022/05/12 07:09:54;;;;;;;15.05;5.60;;;13.70;99.90;;;;;;5056051;28;20036;-90
2022/05/12 07:12:21;;;;;;;12.57;5.25;;;13.70;99.90;;;;;;5039665;28;20041;-90
2022/05/12 07:14:46;;;;;;;13.27;5.32;;;13.70;99.90;;;;;;5056114;28;20036;-90
2022/05/12 07:17:12;;;;;;;13.70;5.43;;;13.80;99.90;;;;;;5056057;28;20049;-90
2022/05/12 07:19:38;;;;;;;11.13;5.53;;;13.80;99.90;;;;;;5039286;28;20079;-90
2022/05/12 07:27:35;;;;;;;10.38;5.38;;;14.10;99.90;;;;;;5055770;28;20080;-90
2022/05/12 07:30:00;;;;;;;12.55;5.03;;;14.20;99.90;;;;;;5055279;28;20041;-90
2022/05/12 07:32:26;;;;;;;10.93;4.70;;;14.30;99.90;;;;;;5055776;28;20460;-90
2022/05/12 07:34:52;;;;;;;11.60;5.07;;;14.40;99.90;;;;;;5038866;28;20402;-90
2022/05/12 07:37:17;;;;;;;10.68;3.90;;;14.50;99.90;;;;;;5038948;28;20119;-90
2022/05/12 07:39:43;;;;;;;10.50;4.07;;;14.50;99.90;;;;;;5055662;28;20036;-90
2022/05/12 07:42:08;;;;;;;10.10;4.10;;;14.50;99.90;;;;;;5055353;28;20040;-91
2022/05/12 07:44:34;;;;;;;11.15;4.38;;;14.60;99.90;;;;;;5055458;28;20123;-91
2022/05/12 07:47:06;;;;;;;11.38;3.85;;;14.70;99.90;;;;;;5073722;28;20032;-91
2022/05/12 07:49:35;;;;;;;8.75;3.50;;;14.80;99.90;;;;;;5055273;28;20043;-90
2022/05/12 07:52:01;;;;;;;9.68;3.50;;;14.90;99.90;;;;;;5038410;28;20040;-90
2022/05/12 07:54:27;;;;;;;13.15;4.45;;;14.90;99.90;;;;;;5055280;28;20040;-90
2022/05/12 07:56:53;;;;;;;11.25;4.57;;;15.00;99.90;;;;;;5055165;28;20041;-91
2022/05/12 07:59:19;;;;;;;9.77;3.67;;;15.10;99.90;;;;;;5055123;28;20036;-91
2022/05/12 08:01:45;;;;;;;10.15;3.88;;;15.10;99.90;;;;;;5054666;28;20043;-90
2022/05/12 08:04:12;;;;;;;11.05;4.13;;;15.20;99.90;;;;;;5072939;28;20040;-91
2022/05/12 08:06:39;;;;;;;12.48;4.20;;;15.20;99.90;;;;;;5073127;28;20036;-91
2022/05/12 08:09:05;;;;;;;11.20;4.55;;;15.30;99.90;;;;;;5038424;28;20048;-92
2022/05/12 08:11:31;;;;;;;12.75;4.53;;;15.40;99.90;;;;;;5054576;28;20041;-91
2022/05/12 08:13:57;;;;;;;12.18;3.60;;;15.40;99.90;;;;;;5042490;28;20045;-91
2022/05/12 08:16:23;;;;;;;10.75;3.78;;;15.50;99.90;;;;;;5035355;28;20379;-91
2022/05/12 08:18:49;;;;;;;11.00;3.97;;;15.50;99.90;;;;;;5034853;28;20048;-91
2022/05/12 08:21:17;;;;;;;10.25;3.35;;;15.50;99.90;;;;;;5034517;28;20049;-91
2022/05/12 08:23:43;;;;;;;10.43;3.05;;;15.60;99.90;;;;;;5034798;28;20477;-91
2022/05/12 08:26:09;;;;;;;10.23;3.28;;;15.40;99.90;;;;;;5034697;28;20041;-91
2022/05/12 08:28:35;;;;;;;7.53;2.88;;;15.50;99.90;;;;;;5034902;28;20119;-91
2022/05/12 08:31:00;;;;;;;9.15;3.17;;;15.50;99.90;;;;;;5034336;28;20123;-91
2022/05/12 08:33:26;;;;;;;12.27;4.07;;;15.60;99.90;;;;;;5034768;28;20041;-91
2022/05/12 08:35:52;;;;;;;7.35;2.75;;;15.80;99.90;;;;;;5034487;28;20041;-91
2022/05/12 08:38:19;;;;;;;9.68;3.13;;;15.90;99.90;;;;;;5034711;28;20098;-91
2022/05/12 08:41:01;;;;;;;9.48;3.10;;;15.70;99.90;;;;;;5034151;28;20251;-91
2022/05/12 08:43:55;;;;;;;9.80;2.63;;;15.80;99.90;;;;;;5034812;28;20045;-91
2022/05/12 08:46:37;;;;;;;10.15;2.90;;;15.80;99.90;;;;;;5029544;28;20049;-91
2022/05/12 08:49:30;;;;;;;9.82;2.53;;;16.00;99.90;;;;;;5034156;28;20049;-91
2022/05/12 08:52:21;;;;;;;7.65;2.60;;;16.00;99.90;;;;;;5029838;28;20053;-91
2022/05/12 08:55:39;;;;;;;10.15;2.88;;;16.10;99.90;;;;;;5034992;28;20064;-91
2022/05/12 08:58:17;;;;;;;10.55;2.88;;;16.10;99.90;;;;;;5013067;28;20092;-92
2022/05/12 09:01:04;;;;;;;8.50;2.58;;;16.10;99.90;;;;;;5050623;28;20045;-91
2022/05/12 09:03:36;;;;;;;8.98;3.35;;;16.30;99.90;;;;;;5034428;28;20082;-91
2022/05/12 09:06:09;;;;;;;;;;;16.40;99.90;;;;;;5034809;28;20097;-91
2022/05/12 09:08:53;;;;;;;8.55;2.90;;;16.40;99.90;;;;;;5034513;28;19924;-92
2022/05/12 09:11:49;;;;;;;10.63;2.80;;;16.50;99.90;;;;;;5033870;28;20045;-91
2022/05/12 09:14:20;;;;;;;7.45;1.90;;;16.50;99.90;;;;;;5050892;28;20495;-91
2022/05/12 09:16:51;;;;;;;7.82;2.35;;;16.60;99.90;;;;;;5034143;28;20045;-91
2022/05/12 09:19:19;;;;;;;9.20;2.67;;;16.60;99.90;;;;;;5034095;28;20037;-91
2022/05/12 09:21:45;;;;;;;9.80;2.88;;;16.60;99.90;;;;;;5033646;28;20041;-92
2022/05/12 09:24:11;;;;;;;9.80;3.40;;;16.40;99.90;;;;;;5018902;28;20041;-91
2022/05/12 09:26:48;;;;;;;9.93;2.80;;;16.50;99.90;;;;;;5038337;28;20033;-91
2022/05/12 09:29:27;;;;;;;7.75;2.08;;;16.50;99.90;;;;;;5038087;28;20041;-91
2022/05/12 09:32:02;;;;;;;8.07;1.80;;;16.50;99.90;;;;;;5037883;28;20086;-91
2022/05/12 09:34:34;;;;;;;8.63;2.38;;;16.50;99.80;;;;;;5037824;28;20116;-91
2022/05/12 09:37:19;;;;;;;10.48;3.00;;;16.60;99.10;;;;;;5037924;28;20089;-92
2022/05/12 09:40:11;;;;;;;9.88;3.20;;;16.70;99.90;;;;;;5021204;28;20440;-91
2022/05/12 09:42:44;;;;;;;9.52;2.65;;;16.70;99.90;;;;;;5022032;28;20445;-91
2022/05/12 09:45:16;;;;;;;8.98;2.47;;;16.80;99.90;;;;;;5036655;28;20036;-91
2022/05/12 09:47:42;;;;;;;9.23;2.63;;;17.00;99.90;;;;;;5037906;28;20037;-91
2022/05/12 09:50:20;;;;;;;9.75;2.28;;;17.10;99.90;;;;;;5037338;28;20403;-91
2022/05/12 09:52:58;;;;;;;8.18;2.38;;;17.10;98.80;;;;;;5051145;28;20044;-91
2022/05/12 09:55:38;;;;;;;7.93;2.10;;;17.20;98.50;;;;;;5057529;28;20444;-91
2022/05/12 09:58:32;;;;;;;8.85;2.67;;;17.20;94.40;;;;;;5052579;28;20127;-91
2022/05/12 10:01:17;;;;;;;8.80;1.95;;;17.00;95.90;;;;;;5057241;28;20044;-91
2022/05/12 10:09:26;;;;;;;6.95;2.15;;;17.10;94.40;;;;;;5057169;28;20413;-91
2022/05/12 10:12:22;;;;;;;8.88;2.53;;;17.20;93.60;;;;;;5056897;28;20032;-92
2022/05/12 10:14:59;;;;;;;7.22;1.95;;;17.10;92.90;;;;;;5073776;28;20036;-91
2022/05/12 10:17:28;;;;;;;8.50;2.03;;;16.90;94.10;;;;;;5073840;28;20044;-91
2022/05/12 10:19:54;;;;;;;6.93;2.30;;;16.80;96.30;;;;;;5073329;28;20551;-92
2022/05/12 10:22:33;;;;;;;8.32;1.70;;;17.10;95.80;;;;;;5057349;28;20109;-92
2022/05/12 10:25:30;;;;;;;9.50;2.28;;;17.20;92.70;;;;;;5056531;28;20104;-91
2022/05/12 10:28:06;;;;;;;9.32;2.53;;;17.50;96.40;;;;;;5040320;28;20080;-91
2022/05/12 10:31:09;;;;;;;7.57;2.10;;;17.70;94.20;;;;;;5056507;28;20036;-91
2022/05/12 10:33:50;;;;;;;5.22;1.40;;;17.80;82.20;;;;;;5073547;28;20057;-91
2022/05/12 10:36:35;;;;;;;6.15;1.95;;;17.80;88.80;;;;;;5055550;28;20102;-91
2022/05/12 10:39:21;;;;;;;7.82;1.95;;;17.90;88.60;;;;;;5056917;28;20410;-91
2022/05/12 10:42:07;;;;;;;7.00;1.50;;;18.00;83.20;;;;;;5072664;28;20040;-91
2022/05/12 10:45:04;;;;;;;6.55;1.67;;;18.10;80.00;;;;;;5056721;28;20048;-91
2022/05/12 10:47:57;;;;;;;7.80;1.75;;;18.10;73.70;;;;;;5056397;28;20044;-91
2022/05/12 10:50:45;;;;;;;7.20;1.52;;;18.10;76.20;;;;;;5056043;28;20043;-91
2022/05/12 10:53:39;;;;;;;7.75;1.85;;;18.20;73.30;;;;;;5056153;28;20062;-91
2022/05/12 10:56:23;;;;;;;6.78;1.88;;;18.30;82.40;;;;;;5056087;28;20495;-91
2022/05/12 10:58:57;;;;;;;7.30;2.38;;;18.30;80.20;;;;;;5056222;28;20098;-90
2022/05/12 11:01:32;;;;;;;7.95;1.90;;;18.10;79.50;;;;;;5055854;28;20559;-90
2022/05/12 11:04:25;;;;;;;7.75;1.98;;;18.10;82.00;;;;;;5053135;28;20413;-90
2022/05/12 11:07:20;;;;;;;8.20;2.35;;;18.20;81.80;;;;;;5070111;28;20044;-91
2022/05/12 11:10:03;;;;;;;6.45;1.70;;;18.20;75.70;;;;;;5049915;28;20051;-91
2022/05/12 11:12:43;;;;;;;6.93;1.80;;;18.40;81.40;;;;;;5053293;28;20062;-90
2022/05/12 11:15:15;;;;;;;6.75;1.90;;;18.60;81.10;;;;;;5052658;28;20043;-91
2022/05/12 11:17:50;;;;;;;7.65;1.75;;;18.80;76.40;;;;;;5036104;28;20043;-90
2022/05/12 11:20:32;;;;;;;5.93;1.83;;;18.70;74.90;;;;;;5052718;28;20125;-91
2022/05/12 11:23:27;;;;;;;10.43;2.03;;;18.90;74.00;;;;;;5054790;28;20063;-91
2022/05/12 11:26:35;;;;;;;8.73;1.90;;;19.10;80.20;;;;;;5055740;28;20080;-90
2022/05/12 11:32:29;;;;;;;8.20;2.00;;;19.30;73.00;;;;;;5055079;28;20044;-91
2022/05/12 11:35:00;;;;;;;9.07;1.70;;;19.40;75.80;;;;;;5055817;28;20040;-90
2022/05/12 11:37:53;;;;;;;8.20;1.75;;;19.50;73.10;;;;;;5072260;28;20090;-90
2022/05/12 11:40:43;;;;;;;7.90;2.00;;;19.50;67.60;;;;;;5055016;28;20511;-90
2022/05/12 11:46:23;;;;;;;7.55;1.90;;;19.30;65.70;;;;;;5017662;28;20101;-90
2022/05/12 11:49:19;;;;;;;8.70;1.95;;;19.10;65.50;;;;;;5055141;28;20098;-90
2022/05/12 11:51:55;;;;;;;7.22;1.77;;;19.30;65.90;;;;;;5054841;28;20047;-91
2022/05/12 11:54:36;;;;;;;9.88;2.03;;;19.30;63.70;;;;;;5055130;28;20033;-90
2022/05/12 11:57:19;;;;;;;7.95;2.15;;;19.40;62.30;;;;;;5055123;28;20041;-91
2022/05/12 11:59:47;;;;;;;8.13;2.38;;;19.10;62.40;;;;;;5054774;28;20095;-91
2022/05/12 12:02:28;;;;;;;6.18;1.70;;;18.80;64.10;;;;;;5054676;28;20040;-91
2022/05/12 12:04:58;;;;;;;7.00;1.95;;;18.70;64.20;;;;;;5070867;28;20148;-90
2022/05/12 12:07:32;;;;;;;6.82;1.83;;;18.60;64.40;;;;;;5053985;28;20047;-91
2022/05/12 12:10:22;;;;;;;6.57;1.83;;;18.70;67.50;;;;;;5054417;28;20044;-91
2022/05/12 12:13:02;;;;;;;5.85;1.48;;;18.90;62.80;;;;;;5088422;28;20041;-91
2022/05/12 12:15:30;;;;;;;6.85;1.80;;;19.00;62.40;;;;;;5054769;28;20047;-91
2022/05/12 12:17:57;;;;;;;7.05;2.00;;;19.10;62.10;;;;;;5054551;28;20088;-91
2022/05/12 12:20:29;;;;;;;7.30;1.67;;;19.10;62.00;;;;;;5054103;28;20608;-91
2022/05/12 12:22:57;;;;;;;8.18;2.30;;;19.40;64.80;;;;;;5054474;28;20119;-91
2022/05/12 12:25:43;;;;;;;6.18;1.60;;;19.50;63.70;;;;;;5050985;28;20090;-90
2022/05/12 12:28:22;;;;;;;6.38;1.90;;;19.30;59.40;;;;;;5034365;28;20474;-90
2022/05/12 12:30:49;;;;;;;8.25;1.90;;;19.20;61.90;;;;;;5051850;28;20045;-90
2022/05/12 12:33:19;;;;;;;6.15;2.08;;;19.40;64.00;;;;;;5033821;28;20045;-91
2022/05/12 12:35:53;;;;;;;7.88;2.00;;;19.60;63.70;;;;;;5034022;28;20095;-90
2022/05/12 12:38:38;;;;;;;6.18;1.45;;;19.70;59.00;;;;;;5034127;28;20041;-91
2022/05/12 12:41:03;;;;;;;6.15;1.33;;;19.80;65.70;;;;;;5033845;28;20132;-91
2022/05/12 12:43:40;;;;;;;5.85;1.77;;;20.00;62.00;;;;;;5034120;28;20128;-91
2022/05/12 12:46:21;;;;;;;7.25;2.00;;;20.10;58.30;;;;;;5034270;28;20083;-91
2022/05/12 12:48:59;;;;;;;8.32;1.80;;;20.10;58.90;;;;;;5034299;28;20051;-91
2022/05/12 12:51:29;;;;;;;5.78;1.77;;;20.00;59.20;;;;;;5017578;28;20144;-90
2022/05/12 12:56:41;;;;;;;6.22;1.33;;;19.50;56.40;;;;;;5050617;28;20510;-91
2022/05/12 12:59:22;;;;;;;8.35;1.65;;;19.40;58.40;;;;;;5032965;28;20041;-90
2022/05/12 13:01:56;;;;;;;6.43;1.63;;;19.50;56.50;;;;;;5033593;28;20182;-91
2022/05/12 13:04:33;;;;;;;8.77;1.40;;;19.50;55.50;;;;;;5033981;28;20126;-91
2022/05/12 13:07:06;;;;;;;6.90;1.52;;;19.60;56.30;;;;;;5034139;28;20406;-90
2022/05/12 13:09:38;;;;;;;7.25;1.90;;;19.50;58.70;;;;;;5033590;28;20049;-91
2022/05/12 13:12:09;;;;;;;6.15;1.73;;;19.60;57.50;;;;;;5035740;28;20059;-90
2022/05/12 13:14:37;;;;;;;5.88;1.60;;;19.60;56.50;;;;;;5034203;28;20053;-91
2022/05/12 13:17:04;;;;;;;8.77;1.42;;;19.70;55.70;;;;;;5017772;28;20045;-90
2022/05/12 13:19:38;;;;;;;6.07;1.58;;;19.90;56.90;;;;;;5034138;28;20134;-91
2022/05/12 13:22:04;;;;;;;7.65;1.60;;;20.10;57.30;;;;;;5033532;28;20059;-91
2022/05/12 13:24:32;;;;;;;7.35;1.90;;;20.10;55.30;;;;;;5034074;28;20390;-91
2022/05/12 13:27:01;;;;;;;6.20;1.60;;;19.90;54.70;;;;;;5033627;28;20049;-91
2022/05/12 13:29:32;;;;;;;5.13;1.38;;;19.70;53.70;;;;;;5033859;28;20048;-90